sensor_id;sensor_type;location;lat;lon;timestamp;pressure;altitude;pressure_sealevel;temperature;humidity
40692;BME280;26377;53.344;14.886;2022-10-23T00:01:49;101344.98;;;12.92;77.46
40692;BME280;26377;53.344;14.886;2022-10-23T00:04:19;101341.70;;;12.87;77.45
40692;BME280;26377;53.344;14.886;2022-10-23T00:06:49;101338.73;;;12.84;77.48
40692;BME280;26377;53.344;14.886;2022-10-23T00:09:19;101329.18;;;12.80;77.51
40692;BME280;26377;53.344;14.886;2022-10-23T00:11:50;101334.65;;;12.77;77.51
40692;BME280;26377;53.344;14.886;2022-10-23T00:14:22;101334.03;;;12.72;77.45
40692;BME280;26377;53.344;14.886;2022-10-23T00:16:50;101341.25;;;12.70;77.44
40692;BME280;26377;53.344;14.886;2022-10-23T00:19:17;101343.22;;;12.67;77.48
40692;BME280;26377;53.344;14.886;2022-10-23T00:21:45;101342.56;;;12.62;77.37
40692;BME280;26377;53.344;14.886;2022-10-23T00:24:16;101335.77;;;12.56;77.36
40692;BME280;26377;53.344;14.886;2022-10-23T00:26:49;101346.11;;;12.54;77.38
40692;BME280;26377;53.344;14.886;2022-10-23T00:29:16;101344.99;;;12.49;77.36
40692;BME280;26377;53.344;14.886;2022-10-23T00:31:45;101353.22;;;12.45;77.28
40692;BME280;26377;53.344;14.886;2022-10-23T00:34:14;101347.27;;;12.40;77.19
40692;BME280;26377;53.344;14.886;2022-10-23T00:36:41;101351.09;;;12.34;77.13
40692;BME280;26377;53.344;14.886;2022-10-23T00:39:09;101354.91;;;12.29;77.12
40692;BME280;26377;53.344;14.886;2022-10-23T00:41:36;101343.64;;;12.24;77.15
40692;BME280;26377;53.344;14.886;2022-10-23T00:44:09;101344.72;;;12.20;77.17
40692;BME280;26377;53.344;14.886;2022-10-23T00:46:40;101343.25;;;12.14;77.10
40692;BME280;26377;53.344;14.886;2022-10-23T00:49:09;101344.86;;;12.08;77.09
40692;BME280;26377;53.344;14.886;2022-10-23T00:51:46;101345.97;;;12.04;77.07
40692;BME280;26377;53.344;14.886;2022-10-23T00:54:18;101346.25;;;11.98;77.05
40692;BME280;26377;53.344;14.886;2022-10-23T00:56:47;101341.69;;;11.92;77.02
40692;BME280;26377;53.344;14.886;2022-10-23T00:59:17;101345.42;;;11.88;77.05
40692;BME280;26377;53.344;14.886;2022-10-23T01:01:47;101343.88;;;11.84;77.10
40692;BME280;26377;53.344;14.886;2022-10-23T01:04:17;101342.23;;;11.81;77.11
40692;BME280;26377;53.344;14.886;2022-10-23T01:12:21;101343.89;;;11.74;77.19
40692;BME280;26377;53.344;14.886;2022-10-23T01:15:07;101352.42;;;11.72;77.24
40692;BME280;26377;53.344;14.886;2022-10-23T01:23:13;101364.00;;;11.71;77.39
40692;BME280;26377;53.344;14.886;2022-10-23T01:29:00;101346.09;;;11.74;77.54
40692;BME280;26377;53.344;14.886;2022-10-23T01:31:38;101348.63;;;11.77;77.68
40692;BME280;26377;53.344;14.886;2022-10-23T01:34:12;101347.06;;;11.82;77.83
40692;BME280;26377;53.344;14.886;2022-10-23T01:36:44;101344.09;;;11.88;77.92
40692;BME280;26377;53.344;14.886;2022-10-23T01:39:25;101350.92;;;11.93;77.99
40692;BME280;26377;53.344;14.886;2022-10-23T01:42:10;101350.16;;;12.00;78.08
40692;BME280;26377;53.344;14.886;2022-10-23T01:44:41;101354.27;;;12.07;78.17
40692;BME280;26377;53.344;14.886;2022-10-23T01:47:17;101352.56;;;12.14;78.25
40692;BME280;26377;53.344;14.886;2022-10-23T01:49:57;101355.30;;;12.21;78.32
40692;BME280;26377;53.344;14.886;2022-10-23T01:52:26;101358.45;;;12.29;78.34
40692;BME280;26377;53.344;14.886;2022-10-23T01:54:58;101357.67;;;12.36;78.40
40692;BME280;26377;53.344;14.886;2022-10-23T01:57:30;101359.17;;;12.41;78.40
40692;BME280;26377;53.344;14.886;2022-10-23T02:00:11;101357.98;;;12.47;78.42
40692;BME280;26377;53.344;14.886;2022-10-23T02:02:53;101364.42;;;12.51;78.41
40692;BME280;26377;53.344;14.886;2022-10-23T02:05:26;101361.52;;;12.56;78.40
40692;BME280;26377;53.344;14.886;2022-10-23T02:07:57;101367.08;;;12.60;78.42
40692;BME280;26377;53.344;14.886;2022-10-23T02:13:29;101372.88;;;12.68;78.47
40692;BME280;26377;53.344;14.886;2022-10-23T02:21:45;101368.34;;;12.78;78.52
40692;BME280;26377;53.344;14.886;2022-10-23T02:24:16;101366.84;;;12.81;78.52
40692;BME280;26377;53.344;14.886;2022-10-23T02:26:52;101367.16;;;12.84;78.54
40692;BME280;26377;53.344;14.886;2022-10-23T02:29:35;101369.20;;;12.88;78.56
40692;BME280;26377;53.344;14.886;2022-10-23T02:32:01;101370.85;;;12.90;78.52
40692;BME280;26377;53.344;14.886;2022-10-23T02:34:29;101376.00;;;12.93;78.54
40692;BME280;26377;53.344;14.886;2022-10-23T02:36:57;101381.63;;;12.95;78.53
40692;BME280;26377;53.344;14.886;2022-10-23T02:39:27;101375.84;;;12.96;78.50
40692;BME280;26377;53.344;14.886;2022-10-23T02:44:49;101381.83;;;13.01;78.52
40692;BME280;26377;53.344;14.886;2022-10-23T02:58:53;101384.47;;;13.10;78.54
40692;BME280;26377;53.344;14.886;2022-10-23T03:01:27;101394.21;;;13.11;78.57
40692;BME280;26377;53.344;14.886;2022-10-23T03:03:59;101397.19;;;13.13;78.59
40692;BME280;26377;53.344;14.886;2022-10-23T03:06:31;101398.41;;;13.15;78.56
40692;BME280;26377;53.344;14.886;2022-10-23T03:09:05;101401.08;;;13.15;78.56
40692;BME280;26377;53.344;14.886;2022-10-23T03:11:35;101404.16;;;13.16;78.58
40692;BME280;26377;53.344;14.886;2022-10-23T03:14:03;101404.53;;;13.17;78.59
40692;BME280;26377;53.344;14.886;2022-10-23T03:16:30;101398.72;;;13.17;78.59
40692;BME280;26377;53.344;14.886;2022-10-23T03:18:59;101399.98;;;13.19;78.59
40692;BME280;26377;53.344;14.886;2022-10-23T03:21:28;101401.23;;;13.20;78.63
40692;BME280;26377;53.344;14.886;2022-10-23T03:23:57;101407.25;;;13.24;78.62
40692;BME280;26377;53.344;14.886;2022-10-23T03:26:27;101406.23;;;13.26;78.65
40692;BME280;26377;53.344;14.886;2022-10-23T03:29:00;101401.70;;;13.28;78.63
40692;BME280;26377;53.344;14.886;2022-10-23T03:31:30;101399.87;;;13.29;78.59
40692;BME280;26377;53.344;14.886;2022-10-23T03:34:01;101399.80;;;13.30;78.61
40692;BME280;26377;53.344;14.886;2022-10-23T03:36:30;101404.11;;;13.33;78.62
40692;BME280;26377;53.344;14.886;2022-10-23T03:38:59;101407.27;;;13.32;78.58
40692;BME280;26377;53.344;14.886;2022-10-23T03:41:30;101407.95;;;13.36;78.40
40692;BME280;26377;53.344;14.886;2022-10-23T03:43:59;101407.95;;;13.36;78.40
40692;BME280;26377;53.344;14.886;2022-10-23T03:46:28;101411.88;;;13.37;78.57
40692;BME280;26377;53.344;14.886;2022-10-23T03:48:55;101414.54;;;13.37;78.56
40692;BME280;26377;53.344;14.886;2022-10-23T03:51:25;101407.38;;;13.38;78.54
40692;BME280;26377;53.344;14.886;2022-10-23T03:53:54;101410.46;;;13.39;78.50
40692;BME280;26377;53.344;14.886;2022-10-23T03:56:23;101413.13;;;13.39;78.48
40692;BME280;26377;53.344;14.886;2022-10-23T03:58:52;101409.13;;;13.39;78.48
40692;BME280;26377;53.344;14.886;2022-10-23T04:01:22;101401.59;;;13.38;78.51
40692;BME280;26377;53.344;14.886;2022-10-23T04:03:51;101406.92;;;13.38;78.46
40692;BME280;26377;53.344;14.886;2022-10-23T04:06:20;101405.21;;;13.37;78.43
40692;BME280;26377;53.344;14.886;2022-10-23T04:08:47;101411.88;;;13.37;78.40
40692;BME280;26377;53.344;14.886;2022-10-23T04:11:18;101403.88;;;13.37;78.40
40692;BME280;26377;53.344;14.886;2022-10-23T04:13:47;101407.08;;;13.35;78.31
40692;BME280;26377;53.344;14.886;2022-10-23T04:16:15;101409.44;;;13.33;78.25
40692;BME280;26377;53.344;14.886;2022-10-23T04:18:45;101406.08;;;13.29;78.22
40692;BME280;26377;53.344;14.886;2022-10-23T04:21:13;101413.77;;;13.27;78.15
40692;BME280;26377;53.344;14.886;2022-10-23T04:23:40;101414.79;;;13.24;78.09
40692;BME280;26377;53.344;14.886;2022-10-23T04:26:15;101416.84;;;13.19;78.04
40692;BME280;26377;53.344;14.886;2022-10-23T04:28:44;101416.98;;;13.16;78.05
40692;BME280;26377;53.344;14.886;2022-10-23T04:31:13;101422.39;;;13.15;78.07
40692;BME280;26377;53.344;14.886;2022-10-23T04:33:42;101418.57;;;13.12;78.04
40692;BME280;26377;53.344;14.886;2022-10-23T04:36:11;101415.52;;;13.11;78.02
40692;BME280;26377;53.344;14.886;2022-10-23T04:38:41;101416.52;;;13.08;78.06
40692;BME280;26377;53.344;14.886;2022-10-23T04:41:10;101410.80;;;13.07;78.05
40692;BME280;26377;53.344;14.886;2022-10-23T04:43:37;101421.14;;;13.05;78.03
40692;BME280;26377;53.344;14.886;2022-10-23T04:46:05;101421.33;;;13.02;77.99
40692;BME280;26377;53.344;14.886;2022-10-23T04:48:33;101421.40;;;13.00;77.91
40692;BME280;26377;53.344;14.886;2022-10-23T04:51:11;101420.67;;;12.97;77.87
40692;BME280;26377;53.344;14.886;2022-10-23T04:53:54;101424.01;;;12.91;77.83
40692;BME280;26377;53.344;14.886;2022-10-23T04:56:29;101423.80;;;12.88;77.81
40692;BME280;26377;53.344;14.886;2022-10-23T04:58:58;101436.45;;;12.82;77.75
40692;BME280;26377;53.344;14.886;2022-10-23T05:01:25;101437.09;;;12.79;77.77
40692;BME280;26377;53.344;14.886;2022-10-23T05:03:54;101437.72;;;12.75;77.72
40692;BME280;26377;53.344;14.886;2022-10-23T05:06:23;101429.56;;;12.70;77.73
40692;BME280;26377;53.344;14.886;2022-10-23T05:09:10;101433.24;;;12.67;77.80
40692;BME280;26377;53.344;14.886;2022-10-23T05:11:57;101433.24;;;12.67;77.93
40692;BME280;26377;53.344;14.886;2022-10-23T05:14:26;101440.38;;;12.67;78.00
40692;BME280;26377;53.344;14.886;2022-10-23T05:17:02;101439.44;;;12.68;78.05
40692;BME280;26377;53.344;14.886;2022-10-23T05:19:40;101443.44;;;12.68;78.02
40692;BME280;26377;53.344;14.886;2022-10-23T05:22:11;101438.56;;;12.67;78.06
40692;BME280;26377;53.344;14.886;2022-10-23T05:24:49;101438.11;;;12.68;78.15
40692;BME280;26377;53.344;14.886;2022-10-23T05:27:18;101444.13;;;12.71;78.27
40692;BME280;26377;53.344;14.886;2022-10-23T05:29:49;101445.78;;;12.74;78.32
40692;BME280;26377;53.344;14.886;2022-10-23T05:32:18;101440.70;;;12.78;78.38
40692;BME280;26377;53.344;14.886;2022-10-23T05:34:46;101440.55;;;12.81;78.41
40692;BME280;26377;53.344;14.886;2022-10-23T05:37:15;101440.37;;;12.84;78.44
40692;BME280;26377;53.344;14.886;2022-10-23T05:39:47;101435.78;;;12.88;78.46
40692;BME280;26377;53.344;14.886;2022-10-23T05:42:17;101438.76;;;12.90;78.49
40692;BME280;26377;53.344;14.886;2022-10-23T05:44:45;101445.17;;;12.94;78.47
40692;BME280;26377;53.344;14.886;2022-10-23T05:47:28;101438.44;;;12.96;78.44
40692;BME280;26377;53.344;14.886;2022-10-23T05:50:15;101431.32;;;12.97;78.40
40692;BME280;26377;53.344;14.886;2022-10-23T05:52:47;101433.98;;;12.97;78.39
40692;BME280;26377;53.344;14.886;2022-10-23T05:55:31;101436.19;;;12.97;78.33
40692;BME280;26377;53.344;14.886;2022-10-23T05:58:16;101433.56;;;12.95;78.36
40692;BME280;26377;53.344;14.886;2022-10-23T06:00:54;101436.23;;;12.95;78.37
40692;BME280;26377;53.344;14.886;2022-10-23T06:03:38;101438.44;;;12.96;78.37
40692;BME280;26377;53.344;14.886;2022-10-23T06:06:07;101439.77;;;12.96;78.35
40692;BME280;26377;53.344;14.886;2022-10-23T06:08:39;101443.77;;;12.96;78.35
40692;BME280;26377;53.344;14.886;2022-10-23T06:11:14;101451.30;;;12.97;78.37
40692;BME280;26377;53.344;14.886;2022-10-23T06:13:44;101457.50;;;12.97;78.36
40692;BME280;26377;53.344;14.886;2022-10-23T06:16:15;101455.22;;;12.98;78.39
40692;BME280;26377;53.344;14.886;2022-10-23T06:18:46;101448.49;;;13.00;78.38
40692;BME280;26377;53.344;14.886;2022-10-23T06:21:18;101446.77;;;12.99;78.35
40692;BME280;26377;53.344;14.886;2022-10-23T06:23:48;101452.98;;;12.99;78.31
40692;BME280;26377;53.344;14.886;2022-10-23T06:26:18;101456.17;;;12.97;78.30
40692;BME280;26377;53.344;14.886;2022-10-23T06:28:49;101454.38;;;12.98;78.28
40692;BME280;26377;53.344;14.886;2022-10-23T06:31:17;101449.52;;;12.97;78.22
40692;BME280;26377;53.344;14.886;2022-10-23T06:33:49;101454.84;;;12.97;78.28
40692;BME280;26377;53.344;14.886;2022-10-23T06:36:17;101455.71;;;12.98;78.28
40692;BME280;26377;53.344;14.886;2022-10-23T06:38:48;101452.98;;;12.99;78.30
40692;BME280;26377;53.344;14.886;2022-10-23T06:41:18;101456.34;;;13.03;78.40
40692;BME280;26377;53.344;14.886;2022-10-23T06:43:50;101453.42;;;13.07;78.52
40692;BME280;26377;53.344;14.886;2022-10-23T06:46:19;101456.25;;;13.13;78.53
40692;BME280;26377;53.344;14.886;2022-10-23T06:48:56;101462.59;;;13.19;78.63
40692;BME280;26377;53.344;14.886;2022-10-23T06:51:25;101455.63;;;13.25;78.68
40692;BME280;26377;53.344;14.886;2022-10-23T06:53:55;101461.40;;;13.33;78.74
40692;BME280;26377;53.344;14.886;2022-10-23T06:56:34;101455.92;;;13.36;78.73
40692;BME280;26377;53.344;14.886;2022-10-23T06:59:06;101453.41;;;13.41;78.75
40692;BME280;26377;53.344;14.886;2022-10-23T07:01:35;101459.75;;;13.47;78.78
40692;BME280;26377;53.344;14.886;2022-10-23T07:04:04;101457.31;;;13.51;78.75
40692;BME280;26377;53.344;14.886;2022-10-23T07:06:35;101452.21;;;13.55;78.78
40692;BME280;26377;53.344;14.886;2022-10-23T07:09:05;101462.08;;;13.62;78.81
40692;BME280;26377;53.344;14.886;2022-10-23T07:11:54;101470.69;;;13.67;78.89
40692;BME280;26377;53.344;14.886;2022-10-23T07:14:24;101468.45;;;13.75;78.96
40692;BME280;26377;53.344;14.886;2022-10-23T07:16:51;101471.73;;;13.80;78.96
40692;BME280;26377;53.344;14.886;2022-10-23T07:19:20;101470.09;;;13.86;78.98
40692;BME280;26377;53.344;14.886;2022-10-23T07:21:56;101469.28;;;13.92;78.99
40692;BME280;26377;53.344;14.886;2022-10-23T07:24:30;101467.69;;;13.97;78.96
40692;BME280;26377;53.344;14.886;2022-10-23T07:27:01;101467.45;;;14.01;78.97
40692;BME280;26377;53.344;14.886;2022-10-23T07:29:29;101474.16;;;14.08;78.97
40692;BME280;26377;53.344;14.886;2022-10-23T07:31:57;101477.63;;;14.10;78.85
40692;BME280;26377;53.344;14.886;2022-10-23T07:34:45;101483.64;;;14.14;78.86
40692;BME280;26377;53.344;14.886;2022-10-23T07:37:20;101483.45;;;14.17;78.86
40692;BME280;26377;53.344;14.886;2022-10-23T07:39:49;101479.62;;;14.22;78.90
40692;BME280;26377;53.344;14.886;2022-10-23T07:42:16;101480.95;;;14.22;78.70
40692;BME280;26377;53.344;14.886;2022-10-23T07:44:43;101483.09;;;14.24;78.76
40692;BME280;26377;53.344;14.886;2022-10-23T07:47:11;101483.77;;;14.28;78.71
40692;BME280;26377;53.344;14.886;2022-10-23T07:49:42;101488.45;;;14.31;78.77
40692;BME280;26377;53.344;14.886;2022-10-23T07:52:10;101491.42;;;14.34;78.75
40692;BME280;26377;53.344;14.886;2022-10-23T07:54:40;101488.30;;;14.34;78.66
40692;BME280;26377;53.344;14.886;2022-10-23T07:57:12;101488.10;;;14.37;78.72
40692;BME280;26377;53.344;14.886;2022-10-23T07:59:41;101481.56;;;14.43;78.79
40692;BME280;26377;53.344;14.886;2022-10-23T08:02:11;101476.83;;;14.48;78.81
40692;BME280;26377;53.344;14.886;2022-10-23T08:04:42;101487.56;;;14.55;78.78
40692;BME280;26377;53.344;14.886;2022-10-23T08:07:22;101479.27;;;14.59;78.74
40692;BME280;26377;53.344;14.886;2022-10-23T08:09:53;101489.43;;;14.68;78.84
40692;BME280;26377;53.344;14.886;2022-10-23T08:12:20;101486.61;;;14.78;78.92
40692;BME280;26377;53.344;14.886;2022-10-23T08:14:51;101491.72;;;14.90;78.99
40692;BME280;26377;53.344;14.886;2022-10-23T08:17:22;101479.95;;;15.01;79.02
40692;BME280;26377;53.344;14.886;2022-10-23T08:19:59;101481.70;;;15.16;78.98
40692;BME280;26377;53.344;14.886;2022-10-23T08:22:29;101484.87;;;15.22;78.89
40692;BME280;26377;53.344;14.886;2022-10-23T08:24:58;101487.96;;;15.30;78.88
40692;BME280;26377;53.344;14.886;2022-10-23T08:27:27;101495.84;;;15.40;78.92
40692;BME280;26377;53.344;14.886;2022-10-23T08:29:58;101491.37;;;15.48;78.86
40692;BME280;26377;53.344;14.886;2022-10-23T08:32:30;101489.64;;;15.54;78.70
40692;BME280;26377;53.344;14.886;2022-10-23T08:35:04;101497.58;;;15.55;78.59
40692;BME280;26377;53.344;14.886;2022-10-23T08:37:36;101495.28;;;15.56;78.52
40692;BME280;26377;53.344;14.886;2022-10-23T08:40:17;101497.95;;;15.56;78.28
40692;BME280;26377;53.344;14.886;2022-10-23T08:46:03;101495.66;;;15.50;78.06
40692;BME280;26377;53.344;14.886;2022-10-23T08:48:55;101482.97;;;15.47;78.05
40692;BME280;26377;53.344;14.886;2022-10-23T08:51:41;101488.02;;;15.44;77.95
40692;BME280;26377;53.344;14.886;2022-10-23T08:54:25;101475.79;;;15.40;77.82
40692;BME280;26377;53.344;14.886;2022-10-23T08:57:10;101479.02;;;15.38;77.85
40692;BME280;26377;53.344;14.886;2022-10-23T08:59:47;101480.64;;;15.41;77.90
40692;BME280;26377;53.344;14.886;2022-10-23T09:02:29;101482.30;;;15.50;78.16
40692;BME280;26377;53.344;14.886;2022-10-23T09:04:58;101489.84;;;15.58;78.08
40692;BME280;26377;53.344;14.886;2022-10-23T09:07:41;101497.02;;;15.64;77.95
40692;BME280;26377;53.344;14.886;2022-10-23T09:16:36;101502.39;;;15.92;77.95
40692;BME280;26377;53.344;14.886;2022-10-23T09:19:16;101503.14;;;15.94;77.64
40692;BME280;26377;53.344;14.886;2022-10-23T09:21:47;101512.14;;;16.00;77.69
40692;BME280;26377;53.344;14.886;2022-10-23T09:24:21;101511.28;;;16.07;77.69
40692;BME280;26377;53.344;14.886;2022-10-23T09:26:53;101510.61;;;16.10;77.43
40692;BME280;26377;53.344;14.886;2022-10-23T09:29:27;101513.00;;;16.08;77.35
40692;BME280;26377;53.344;14.886;2022-10-23T09:32:02;101512.91;;;16.09;77.33
40692;BME280;26377;53.344;14.886;2022-10-23T09:34:34;101512.99;;;16.22;77.41
40692;BME280;26377;53.344;14.886;2022-10-23T09:37:19;101513.06;;;16.34;77.35
40692;BME280;26377;53.344;14.886;2022-10-23T09:42:58;101515.94;;;16.59;77.27
40692;BME280;26377;53.344;14.886;2022-10-23T09:45:33;101510.13;;;16.72;77.18
40692;BME280;26377;53.344;14.886;2022-10-23T09:48:14;101511.92;;;16.86;77.04
40692;BME280;26377;53.344;14.886;2022-10-23T09:50:54;101505.36;;;16.97;76.93
40692;BME280;26377;53.344;14.886;2022-10-23T09:56:39;101506.27;;;17.10;76.62
40692;BME280;26377;53.344;14.886;2022-10-23T10:01:47;101502.52;;;17.32;76.44
40692;BME280;26377;53.344;14.886;2022-10-23T10:04:38;101502.39;;;17.40;76.35
40692;BME280;26377;53.344;14.886;2022-10-23T10:07:24;101500.42;;;17.49;76.16
40692;BME280;26377;53.344;14.886;2022-10-23T10:09:54;101497.58;;;17.58;76.11
40692;BME280;26377;53.344;14.886;2022-10-23T10:12:51;101491.98;;;17.68;75.99
40692;BME280;26377;53.344;14.886;2022-10-23T10:15:43;101493.45;;;17.72;75.77
40692;BME280;26377;53.344;14.886;2022-10-23T10:18:37;101491.57;;;17.67;75.46
40692;BME280;26377;53.344;14.886;2022-10-23T10:24:20;101491.91;;;17.75;75.68
40692;BME280;26377;53.344;14.886;2022-10-23T10:27:18;101487.97;;;17.86;75.52
40692;BME280;26377;53.344;14.886;2022-10-23T10:33:03;101481.80;;;18.03;75.04
40692;BME280;26377;53.344;14.886;2022-10-23T10:35:48;101477.01;;;18.01;74.98
40692;BME280;26377;53.344;14.886;2022-10-23T10:38:51;101484.20;;;18.13;75.00
40692;BME280;26377;53.344;14.886;2022-10-23T10:44:45;101472.12;;;18.31;74.65
40692;BME280;26377;53.344;14.886;2022-10-23T10:50:04;101475.28;;;18.43;74.39
40692;BME280;26377;53.344;14.886;2022-10-23T10:52:59;101467.78;;;18.54;74.35
40692;BME280;26377;53.344;14.886;2022-10-23T10:55:41;101461.25;;;18.63;74.23
40692;BME280;26377;53.344;14.886;2022-10-23T11:01:02;101459.67;;;18.90;74.32
40692;BME280;26377;53.344;14.886;2022-10-23T11:03:51;101457.41;;;19.02;73.96
40692;BME280;26377;53.344;14.886;2022-10-23T11:06:26;101456.45;;;19.08;73.75
40692;BME280;26377;53.344;14.886;2022-10-23T11:09:05;101453.43;;;19.18;73.66
40692;BME280;26377;53.344;14.886;2022-10-23T11:11:45;101452.36;;;19.26;73.59
40692;BME280;26377;53.344;14.886;2022-10-23T11:14:15;101451.54;;;19.37;73.39
40692;BME280;26377;53.344;14.886;2022-10-23T11:19:40;101446.81;;;19.51;72.91
40692;BME280;26377;53.344;14.886;2022-10-23T11:22:36;101449.64;;;19.55;72.68
40692;BME280;26377;53.344;14.886;2022-10-23T11:28:18;101451.21;;;19.63;72.32
40692;BME280;26377;53.344;14.886;2022-10-23T11:31:02;101446.83;;;19.68;72.15
40692;BME280;26377;53.344;14.886;2022-10-23T11:39:29;101421.98;;;19.70;71.50
40692;BME280;26377;53.344;14.886;2022-10-23T11:44:49;101417.22;;;19.68;71.01
40692;BME280;26377;53.344;14.886;2022-10-23T11:55:29;101403.75;;;19.84;71.23
40692;BME280;26377;53.344;14.886;2022-10-23T12:03:28;101400.20;;;19.89;70.65
40692;BME280;26377;53.344;14.886;2022-10-23T12:06:04;101400.82;;;19.82;70.50
40692;BME280;26377;53.344;14.886;2022-10-23T12:08:42;101399.23;;;19.79;70.45
40692;BME280;26377;53.344;14.886;2022-10-23T12:11:03;101394.81;;;19.84;70.45
40692;BME280;26377;53.344;14.886;2022-10-23T12:13:44;101392.50;;;19.79;70.28
40692;BME280;26377;53.344;14.886;2022-10-23T12:16:12;101386.14;;;19.69;70.26
40692;BME280;26377;53.344;14.886;2022-10-23T12:18:52;101387.23;;;19.61;70.10
40692;BME280;26377;53.344;14.886;2022-10-23T12:21:23;101385.87;;;19.56;70.13
40692;BME280;26377;53.344;14.886;2022-10-23T12:24:20;101376.45;;;19.56;70.09
40692;BME280;26377;53.344;14.886;2022-10-23T12:26:56;101369.73;;;19.61;70.16
40692;BME280;26377;53.344;14.886;2022-10-23T12:38:26;101352.47;;;19.58;70.11
40692;BME280;26377;53.344;14.886;2022-10-23T12:40:59;101352.23;;;19.61;70.11
40692;BME280;26377;53.344;14.886;2022-10-23T12:43:35;101356.75;;;19.61;70.04
40692;BME280;26377;53.344;14.886;2022-10-23T12:48:55;101351.61;;;19.47;69.66
40692;BME280;26377;53.344;14.886;2022-10-23T12:51:27;101351.63;;;19.36;69.64
40692;BME280;26377;53.344;14.886;2022-10-23T12:54:00;101352.72;;;19.33;69.75
40692;BME280;26377;53.344;14.886;2022-10-23T12:56:35;101359.45;;;19.33;69.69
40692;BME280;26377;53.344;14.886;2022-10-23T12:59:35;101352.34;;;19.38;69.65
40692;BME280;26377;53.344;14.886;2022-10-23T13:01:42;101346.62;;;19.42;69.71
40692;BME280;26377;53.344;14.886;2022-10-23T13:04:12;101341.95;;;19.44;69.61
40692;BME280;26377;53.344;14.886;2022-10-23T13:06:52;101337.20;;;19.42;69.46
40692;BME280;26377;53.344;14.886;2022-10-23T13:09:37;101343.19;;;19.35;69.33
40692;BME280;26377;53.344;14.886;2022-10-23T13:12:19;101342.68;;;19.24;69.17
40692;BME280;26377;53.344;14.886;2022-10-23T13:23:00;101339.99;;;18.84;69.03
40692;BME280;26377;53.344;14.886;2022-10-23T13:25:39;101329.95;;;18.75;69.32
40692;BME280;26377;53.344;14.886;2022-10-23T13:28:21;101329.95;;;18.75;69.32
40692;BME280;26377;53.344;14.886;2022-10-23T13:30:44;101335.58;;;18.72;69.16
40692;BME280;26377;53.344;14.886;2022-10-23T13:33:23;101326.25;;;18.65;69.33
40692;BME280;26377;53.344;14.886;2022-10-23T13:36:01;101326.25;;;18.65;69.33
40692;BME280;26377;53.344;14.886;2022-10-23T13:38:33;101326.51;;;18.62;69.18
40692;BME280;26377;53.344;14.886;2022-10-23T13:41:04;101321.94;;;18.57;69.16
40692;BME280;26377;53.344;14.886;2022-10-23T13:43:36;101324.52;;;18.53;69.21
40692;BME280;26377;53.344;14.886;2022-10-23T13:46:03;101327.65;;;18.47;69.04
40692;BME280;26377;53.344;14.886;2022-10-23T13:48:33;101325.66;;;18.38;69.14
40692;BME280;26377;53.344;14.886;2022-10-23T13:51:20;101321.12;;;18.33;69.24
40692;BME280;26377;53.344;14.886;2022-10-23T13:53:49;101316.80;;;18.31;69.23
40692;BME280;26377;53.344;14.886;2022-10-23T13:56:19;101310.92;;;18.26;69.24
40692;BME280;26377;53.344;14.886;2022-10-23T13:58:50;101301.98;;;18.20;69.31
40692;BME280;26377;53.344;14.886;2022-10-23T14:01:31;101292.44;;;18.16;69.36
40692;BME280;26377;53.344;14.886;2022-10-23T14:03:59;101287.69;;;18.14;69.42
40692;BME280;26377;53.344;14.886;2022-10-23T14:06:29;101295.20;;;18.09;69.43
40692;BME280;26377;53.344;14.886;2022-10-23T14:08:58;101292.50;;;18.03;69.45
40692;BME280;26377;53.344;14.886;2022-10-23T14:11:31;101291.59;;;17.97;69.47
40692;BME280;26377;53.344;14.886;2022-10-23T14:13:59;101298.88;;;17.90;69.43
40692;BME280;26377;53.344;14.886;2022-10-23T14:16:27;101300.20;;;17.84;69.51
40692;BME280;26377;53.344;14.886;2022-10-23T14:18:59;101297.84;;;17.80;69.62
40692;BME280;26377;53.344;14.886;2022-10-23T14:21:26;101294.75;;;17.73;69.61
40692;BME280;26377;53.344;14.886;2022-10-23T14:23:54;101286.28;;;17.67;69.64
40692;BME280;26377;53.344;14.886;2022-10-23T14:26:26;101288.08;;;17.61;69.64
40692;BME280;26377;53.344;14.886;2022-10-23T14:28:56;101282.41;;;17.53;69.64
40692;BME280;26377;53.344;14.886;2022-10-23T14:31:25;101281.73;;;17.44;69.69
40692;BME280;26377;53.344;14.886;2022-10-23T14:33:56;101276.52;;;17.35;69.76
40692;BME280;26377;53.344;14.886;2022-10-23T14:36:28;101271.97;;;17.30;69.81
40692;BME280;26377;53.344;14.886;2022-10-23T14:38:56;101274.59;;;17.25;69.93
40692;BME280;26377;53.344;14.886;2022-10-23T14:41:26;101268.23;;;17.20;70.01
40692;BME280;26377;53.344;14.886;2022-10-23T14:43:53;101270.28;;;17.17;70.05
40692;BME280;26377;53.344;14.886;2022-10-23T14:46:22;101275.09;;;17.12;70.08
40692;BME280;26377;53.344;14.886;2022-10-23T14:48:52;101266.14;;;17.06;70.12
40692;BME280;26377;53.344;14.886;2022-10-23T14:51:24;101257.68;;;16.99;70.15
40692;BME280;26377;53.344;14.886;2022-10-23T14:53:58;101268.38;;;16.94;70.20
40692;BME280;26377;53.344;14.886;2022-10-23T14:56:36;101259.91;;;16.87;70.25
40692;BME280;26377;53.344;14.886;2022-10-23T14:59:06;101256.99;;;16.78;70.30
40692;BME280;26377;53.344;14.886;2022-10-23T15:01:41;101261.34;;;16.73;70.38
40692;BME280;26377;53.344;14.886;2022-10-23T15:04:09;101264.33;;;16.69;70.46
40692;BME280;26377;53.344;14.886;2022-10-23T15:06:37;101254.41;;;16.64;70.50
40692;BME280;26377;53.344;14.886;2022-10-23T15:09:04;101251.30;;;16.57;70.56
40692;BME280;26377;53.344;14.886;2022-10-23T15:11:33;101237.37;;;16.52;70.64